createdAt,value
2022-09-06T00:04:04.782Z,10.73
2022-09-06T00:09:26.699Z,10.89
2022-09-06T00:14:48.524Z,10.76
2022-09-06T00:20:10.892Z,10.76
2022-09-06T00:25:33.441Z,10.76
2022-09-06T00:30:55.343Z,10.85
2022-09-06T00:36:18.477Z,10.82
2022-09-06T00:41:40.350Z,10.79
2022-09-06T00:47:02.760Z,10.66
2022-09-06T00:52:26.052Z,10.63
2022-09-06T00:57:49.606Z,10.53
2022-09-06T01:03:12.862Z,10.44
2022-09-06T01:08:59.331Z,10.39
2022-09-06T01:14:45.448Z,10.18
2022-09-06T01:20:19.524Z,10.08
2022-09-06T01:25:59.104Z,9.85
2022-09-06T01:31:40.049Z,9.64
2022-09-06T01:37:11.260Z,9.53
2022-09-06T01:42:34.635Z,9.49
2022-09-06T01:48:12.498Z,9.56
2022-09-06T01:53:53.282Z,9.35
2022-09-06T01:59:24.979Z,9.40
2022-09-06T02:04:57.346Z,9.47
2022-09-06T02:10:29.865Z,9.09
2022-09-06T02:16:01.208Z,9.01
2022-09-06T02:21:28.105Z,8.92
2022-09-06T02:26:50.396Z,8.80
2022-09-06T02:32:12.182Z,8.84
2022-09-06T02:37:34.460Z,8.63
2022-09-06T02:42:56.271Z,8.76
2022-09-06T02:48:18.114Z,8.83
2022-09-06T02:53:40.050Z,8.92
2022-09-06T02:59:02.820Z,9.12
2022-09-06T03:04:24.644Z,9.11
2022-09-06T03:09:46.472Z,9.36
2022-09-06T03:15:08.879Z,9.54
2022-09-06T03:20:35.049Z,9.66
2022-09-06T03:25:58.877Z,9.74
2022-09-06T03:31:20.847Z,9.84
2022-09-06T03:36:42.759Z,9.95
2022-09-06T03:42:04.645Z,9.98
2022-09-06T03:47:26.499Z,9.99
2022-09-06T03:52:48.341Z,10.02
2022-09-06T03:58:10.219Z,10.29
2022-09-06T04:03:32.659Z,10.34
2022-09-06T04:08:54.729Z,10.31
2022-09-06T04:14:16.574Z,10.51
2022-09-06T04:19:38.395Z,11.15
2022-09-06T04:25:00.269Z,12.18
2022-09-06T04:30:22.155Z,14.99
2022-09-06T04:35:48.858Z,18.88
2022-09-06T04:41:11.437Z,18.89
2022-09-06T04:46:33.537Z,22.32
2022-09-06T04:51:55.401Z,24.11
2022-09-06T04:57:17.275Z,26.01
2022-09-06T05:02:39.233Z,27.93
2022-09-06T05:08:01.155Z,28.39
2022-09-06T05:13:22.990Z,27.06
2022-09-06T05:18:44.899Z,25.43
2022-09-06T05:24:06.773Z,22.09
2022-09-06T05:29:30.602Z,20.77
2022-09-06T05:34:52.606Z,22.52
2022-09-06T05:40:14.493Z,21.88
2022-09-06T05:45:36.477Z,26.93
2022-09-06T05:51:03.207Z,28.30
2022-09-06T05:56:25.520Z,29.06
2022-09-06T06:01:49.494Z,28.64
2022-09-06T06:07:11.349Z,29.78
2022-09-06T06:12:33.198Z,30.42
2022-09-06T06:17:55.056Z,30.01
2022-09-06T06:23:16.906Z,30.94
2022-09-06T06:28:39.744Z,30.64
2022-09-06T06:34:01.798Z,30.35
2022-09-06T06:39:23.722Z,30.55
2022-09-06T06:44:45.612Z,31.00
2022-09-06T06:50:07.820Z,31.05
2022-09-06T06:55:29.637Z,32.51
2022-09-06T07:00:51.595Z,30.91
2022-09-06T07:06:14.798Z,31.61
2022-09-06T07:11:36.623Z,32.35
2022-09-06T07:16:58.460Z,32.11
2022-09-06T07:22:20.293Z,31.59
2022-09-06T07:33:06.798Z,28.17
2022-09-06T07:38:29.530Z,32.92
2022-09-06T07:43:54.664Z,32.40
2022-09-06T07:49:16.491Z,27.82
2022-09-06T07:54:38.302Z,29.21
2022-09-06T08:00:00.250Z,27.61
2022-09-06T08:11:03.909Z,28.86
2022-09-06T08:16:27.844Z,30.37
2022-09-06T08:21:49.817Z,30.00
2022-09-06T08:27:11.743Z,28.77
2022-09-06T08:32:33.999Z,29.12
2022-09-06T08:37:58.311Z,29.77
2022-09-06T08:43:21.599Z,29.16
2022-09-06T08:48:43.709Z,28.09
2022-09-06T08:54:32.226Z,26.77
2022-09-06T08:59:59.834Z,28.26
2022-09-06T09:05:33.691Z,26.59
2022-09-06T09:11:03.112Z,28.20
2022-09-06T09:16:25.545Z,28.56
2022-09-06T09:21:47.936Z,28.11
2022-09-06T09:27:11.401Z,28.66
2022-09-06T09:32:37.936Z,27.39
2022-09-06T09:38:11.988Z,27.22
2022-09-06T09:43:40.318Z,27.58
2022-09-06T09:49:14.631Z,28.99
2022-09-06T09:54:41.085Z,28.79
2022-09-06T10:00:03.925Z,26.97
2022-09-06T10:05:25.829Z,27.27
2022-09-06T10:10:48.051Z,25.51
2022-09-06T10:16:10.132Z,24.13
2022-09-06T10:21:32.179Z,23.66
2022-09-06T10:26:59.111Z,24.48
2022-09-06T10:32:49.082Z,21.38
2022-09-06T10:38:31.893Z,20.82
2022-09-06T10:44:30.931Z,20.13
2022-09-06T10:49:58.467Z,20.05
2022-09-06T10:55:20.857Z,19.59
2022-09-06T11:00:45.839Z,19.47
2022-09-06T11:06:09.875Z,19.65
2022-09-06T11:11:47.540Z,19.81
2022-09-06T11:17:09.337Z,19.83
2022-09-06T11:22:46.445Z,19.81
2022-09-06T11:28:14.068Z,20.16
2022-09-06T11:33:35.975Z,19.91
2022-09-06T11:39:03.047Z,19.50
2022-09-06T11:44:50.021Z,19.64
2022-09-06T11:50:20.977Z,19.42
2022-09-06T11:55:48.924Z,19.25
2022-09-06T12:01:13.800Z,19.36
2022-09-06T12:07:02.498Z,19.32
2022-09-06T12:12:45.638Z,19.76
2022-09-06T12:18:07.557Z,19.58
2022-09-06T12:23:35.327Z,19.90
2022-09-06T12:28:58.231Z,19.95
2022-09-06T12:34:22.159Z,20.28
2022-09-06T12:39:57.473Z,19.90
2022-09-06T12:45:26.590Z,19.87
2022-09-06T12:51:01.155Z,19.48
2022-09-06T12:56:25.279Z,19.60
2022-09-06T13:01:51.649Z,19.46
2022-09-06T13:07:17.338Z,19.69
2022-09-06T13:12:45.429Z,19.91
2022-09-06T13:18:36.697Z,19.87
2022-09-06T13:23:59.463Z,19.95
2022-09-06T13:29:29.410Z,20.16
2022-09-06T13:34:51.750Z,20.19
2022-09-06T13:41:06.731Z,20.28
2022-09-06T13:46:25.079Z,20.47
2022-09-06T13:51:46.976Z,20.20
2022-09-06T13:57:08.817Z,20.07
2022-09-06T14:02:30.674Z,19.96
2022-09-06T14:07:52.544Z,19.96
2022-09-06T14:13:16.288Z,20.17
2022-09-06T14:18:38.258Z,20.06
2022-09-06T14:24:04.049Z,20.02
2022-09-06T14:29:26.308Z,20.10
2022-09-06T14:34:48.123Z,20.31
2022-09-06T14:40:10.277Z,20.26
2022-09-06T14:45:35.003Z,20.22
2022-09-06T14:50:57.088Z,20.35
2022-09-06T14:56:19.857Z,20.16
2022-09-06T15:01:41.953Z,20.17
2022-09-06T15:07:03.854Z,19.98
2022-09-06T15:12:25.768Z,20.07
2022-09-06T15:17:47.619Z,19.70
2022-09-06T15:23:29.486Z,19.67
2022-09-06T15:28:52.023Z,19.75
2022-09-06T15:34:13.883Z,19.66
2022-09-06T15:39:35.758Z,19.52
2022-09-06T15:44:57.607Z,19.42
2022-09-06T15:50:40.716Z,19.58
2022-09-06T15:56:01.531Z,19.58
2022-09-06T16:01:25.533Z,19.38
2022-09-06T16:06:47.368Z,19.10
2022-09-06T16:12:09.195Z,19.18
2022-09-06T16:17:31.070Z,19.12
2022-09-06T16:22:52.883Z,18.91
2022-09-06T16:28:15.444Z,18.70
2022-09-06T16:33:39.322Z,18.68
2022-09-06T16:39:01.163Z,18.66
2022-09-06T16:44:23.019Z,18.45
2022-09-06T16:49:44.909Z,18.38
2022-09-06T16:55:07.265Z,18.15
2022-09-06T17:00:29.116Z,18.12
2022-09-06T17:05:52.283Z,17.88
2022-09-06T17:11:17.036Z,17.71
2022-09-06T17:16:39.005Z,17.60
2022-09-06T17:22:00.936Z,17.61
2022-09-06T17:27:22.869Z,17.47
2022-09-06T17:32:44.690Z,17.25
2022-09-06T17:38:06.518Z,17.17
2022-09-06T17:43:29.944Z,17.03
2022-09-06T17:48:51.762Z,16.91
2022-09-06T17:54:14.330Z,16.78
2022-09-06T17:59:36.396Z,16.73
2022-09-06T18:04:58.545Z,16.54
2022-09-06T18:10:20.424Z,16.43
2022-09-06T18:15:42.400Z,16.30
2022-09-06T18:21:05.276Z,16.29
2022-09-06T18:26:27.144Z,16.02
2022-09-06T18:31:49.206Z,15.97
2022-09-06T18:37:11.260Z,15.74
2022-09-06T18:42:33.520Z,15.72
2022-09-06T18:47:55.354Z,15.63
2022-09-06T18:53:17.283Z,15.33
2022-09-06T18:58:39.693Z,15.30
2022-09-06T19:04:02.506Z,15.11
2022-09-06T19:09:24.362Z,15.17
2022-09-06T19:14:46.163Z,15.07
2022-09-06T19:20:08.154Z,14.88
2022-09-06T19:25:30.046Z,14.85
2022-09-06T19:30:51.860Z,14.83
2022-09-06T19:36:16.458Z,14.64
2022-09-06T19:41:39.780Z,14.59
2022-09-06T19:47:01.828Z,14.48
2022-09-06T19:52:23.816Z,14.52
2022-09-06T19:57:45.688Z,14.40
2022-09-06T20:03:07.519Z,14.41
2022-09-06T20:08:29.431Z,14.36
2022-09-06T20:13:51.506Z,14.18
2022-09-06T20:19:13.452Z,14.16
2022-09-06T20:24:35.283Z,13.86
2022-09-06T20:29:57.105Z,13.78
2022-09-06T20:35:18.933Z,13.66
2022-09-06T20:40:40.816Z,13.49
2022-09-06T20:46:05.023Z,13.36
2022-09-06T20:51:26.881Z,13.24
2022-09-06T20:56:48.727Z,13.28
2022-09-06T21:02:10.645Z,13.36
2022-09-06T21:07:32.523Z,13.18
2022-09-06T21:12:54.343Z,13.09
2022-09-06T21:18:16.228Z,13.15
2022-09-06T21:23:38.958Z,13.02
2022-09-06T21:29:00.833Z,12.87
2022-09-06T21:34:22.727Z,12.82
2022-09-06T21:39:44.616Z,12.73
2022-09-06T21:45:06.725Z,12.59
2022-09-06T21:50:28.549Z,12.37
2022-09-06T21:55:50.367Z,12.35
2022-09-06T22:01:13.305Z,12.12
2022-09-06T22:06:36.003Z,12.07
2022-09-06T22:11:57.964Z,11.89
2022-09-06T22:17:19.901Z,11.89
2022-09-06T22:22:41.891Z,11.74
2022-09-06T22:28:03.824Z,11.80
2022-09-06T22:33:25.810Z,11.66
2022-09-06T22:38:47.732Z,11.63
2022-09-06T22:44:09.699Z,11.54
2022-09-06T22:49:31.654Z,11.39
2022-09-06T22:54:53.571Z,11.29
2022-09-06T23:00:15.738Z,11.07
2022-09-06T23:05:37.709Z,11.02
2022-09-06T23:11:04.152Z,10.98
2022-09-06T23:16:27.668Z,10.89
2022-09-06T23:21:49.693Z,10.92
2022-09-06T23:27:11.657Z,10.87
2022-09-06T23:32:33.609Z,10.73
2022-09-06T23:37:55.549Z,10.77
2022-09-06T23:43:17.538Z,10.68
2022-09-06T23:48:39.495Z,10.61
2022-09-06T23:54:01.553Z,10.58
2022-09-06T23:59:23.495Z,10.47
